createdAt,value
2023-04-27T00:01:48.444Z,5.50
2023-04-27T00:04:16.941Z,5.40
2023-04-27T00:06:44.412Z,5.40
2023-04-27T00:09:12.011Z,5.40
2023-04-27T00:11:39.481Z,5.40
2023-04-27T00:14:06.891Z,5.30
2023-04-27T00:16:34.323Z,5.30
2023-04-27T00:19:01.782Z,5.30
2023-04-27T00:21:28.915Z,5.20
2023-04-27T00:23:56.265Z,5.20
2023-04-27T00:26:23.560Z,5.20
2023-04-27T00:28:50.941Z,5.20
2023-04-27T00:31:18.392Z,5.20
2023-04-27T00:33:45.614Z,5.30
2023-04-27T00:36:13.107Z,5.30
2023-04-27T00:38:40.478Z,5.20
2023-04-27T00:41:08.741Z,5.20
2023-04-27T00:43:46.781Z,5.20
2023-04-27T00:46:14.985Z,5.20
2023-04-27T00:48:42.697Z,5.30
2023-04-27T00:51:10.616Z,5.30
2023-04-27T00:53:38.476Z,5.30
2023-04-27T00:56:07.333Z,5.30
2023-04-27T00:58:34.600Z,5.30
2023-04-27T01:01:02.340Z,5.30
2023-04-27T01:03:31.219Z,5.20
2023-04-27T01:06:01.880Z,5.20
2023-04-27T01:08:32.021Z,5.20
2023-04-27T01:10:59.198Z,5.20
2023-04-27T01:13:26.468Z,5.20
2023-04-27T01:15:53.791Z,5.20
2023-04-27T01:18:21.029Z,5.20
2023-04-27T01:20:48.332Z,5.20
2023-04-27T01:23:17.313Z,5.10
2023-04-27T01:25:45.209Z,5.10
2023-04-27T01:28:12.873Z,5.10
2023-04-27T01:30:40.160Z,5.10
2023-04-27T01:33:07.495Z,5.10
2023-04-27T01:35:34.825Z,5.00
2023-04-27T01:38:02.983Z,5.00
2023-04-27T01:40:30.302Z,5.00
2023-04-27T01:42:57.564Z,5.00
2023-04-27T01:45:25.297Z,4.90
2023-04-27T01:47:53.076Z,4.90
2023-04-27T01:50:20.824Z,4.90
2023-04-27T01:52:48.256Z,4.90
2023-04-27T01:55:15.665Z,4.90
2023-04-27T01:57:43.328Z,4.90
2023-04-27T02:00:11.162Z,4.80
2023-04-27T02:02:38.478Z,4.80
2023-04-27T02:05:06.903Z,4.70
2023-04-27T02:07:34.117Z,4.70
2023-04-27T02:10:01.550Z,4.60
2023-04-27T02:12:28.753Z,4.60
2023-04-27T02:14:56.168Z,4.60
2023-04-27T02:17:23.433Z,4.50
2023-04-27T02:19:50.639Z,4.50
2023-04-27T02:22:18.011Z,4.50
2023-04-27T02:24:45.184Z,4.50
2023-04-27T02:27:13.150Z,4.50
2023-04-27T02:29:41.081Z,4.50
2023-04-27T02:32:08.749Z,4.50
2023-04-27T02:34:36.060Z,4.50
2023-04-27T02:37:03.345Z,4.50
2023-04-27T02:39:30.427Z,4.60
2023-04-27T02:41:57.716Z,4.60
2023-04-27T02:44:25.002Z,4.60
2023-04-27T02:46:52.211Z,4.60
2023-04-27T02:49:19.603Z,4.60
2023-04-27T02:51:46.854Z,4.50
2023-04-27T02:54:14.255Z,4.50
2023-04-27T02:56:41.470Z,4.50
2023-04-27T02:59:08.804Z,4.50
2023-04-27T03:01:36.626Z,4.40
2023-04-27T03:04:04.530Z,4.40
2023-04-27T03:06:32.055Z,4.40
2023-04-27T03:08:59.377Z,4.40
2023-04-27T03:11:26.923Z,4.30
2023-04-27T03:13:54.128Z,4.20
2023-04-27T03:16:21.545Z,4.20
2023-04-27T03:18:48.788Z,4.10
2023-04-27T03:21:19.702Z,4.00
2023-04-27T03:23:46.773Z,4.00
2023-04-27T03:26:15.232Z,3.90
2023-04-27T03:28:42.662Z,3.90
2023-04-27T03:31:11.971Z,3.80
2023-04-27T03:33:39.979Z,3.70
2023-04-27T03:36:08.837Z,3.70
2023-04-27T03:38:36.298Z,3.70
2023-04-27T03:41:03.773Z,3.60
2023-04-27T03:43:31.076Z,3.60
2023-04-27T03:45:58.277Z,3.50
2023-04-27T03:48:25.887Z,3.50
2023-04-27T03:50:53.124Z,3.50
2023-04-27T03:53:20.316Z,3.40
2023-04-27T03:55:48.029Z,3.40
2023-04-27T03:58:15.184Z,3.40
2023-04-27T04:00:42.341Z,3.30
2023-04-27T04:03:09.842Z,3.30
2023-04-27T04:05:37.259Z,3.30
2023-04-27T04:08:04.791Z,3.30
2023-04-27T04:10:31.825Z,3.30
2023-04-27T04:12:58.873Z,3.30
2023-04-27T04:15:25.922Z,3.30
2023-04-27T04:17:52.998Z,3.20
2023-04-27T04:20:20.156Z,3.20
2023-04-27T04:22:47.232Z,3.20
2023-04-27T04:25:14.547Z,3.20
2023-04-27T04:27:42.044Z,3.20
2023-04-27T04:30:09.618Z,3.30
2023-04-27T04:32:40.457Z,3.30
2023-04-27T04:35:08.093Z,3.40
2023-04-27T04:37:38.055Z,3.50
2023-04-27T04:40:10.043Z,3.70
2023-04-27T04:42:38.083Z,3.80
2023-04-27T04:45:06.102Z,4.00
2023-04-27T04:47:34.470Z,3.90
2023-04-27T04:50:01.699Z,4.10
2023-04-27T04:52:28.785Z,4.30
2023-04-27T04:54:55.868Z,4.50
2023-04-27T04:57:22.931Z,4.60
2023-04-27T04:59:50.026Z,4.40
2023-04-27T05:02:17.188Z,4.30
2023-04-27T05:04:44.351Z,4.40
2023-04-27T05:07:14.770Z,4.40
2023-04-27T05:09:42.490Z,4.60
2023-04-27T05:12:09.514Z,4.60
2023-04-27T05:14:36.619Z,4.60
2023-04-27T05:17:03.709Z,4.50
2023-04-27T05:19:31.558Z,4.70
2023-04-27T05:21:59.163Z,4.70
2023-04-27T05:24:26.676Z,4.70
2023-04-27T05:26:54.137Z,4.80
2023-04-27T05:29:22.269Z,4.60
2023-04-27T05:31:49.664Z,4.50
2023-04-27T05:34:17.154Z,4.40
2023-04-27T05:36:44.306Z,4.30
2023-04-27T05:39:11.579Z,4.30
2023-04-27T05:41:38.826Z,4.30
2023-04-27T05:44:06.732Z,4.30
2023-04-27T05:46:34.904Z,4.30
2023-04-27T05:49:02.944Z,5.00
2023-04-27T05:51:30.044Z,5.80
2023-04-27T05:53:57.061Z,6.20
2023-04-27T05:56:24.069Z,6.70
2023-04-27T05:58:52.026Z,6.90
2023-04-27T06:01:19.156Z,7.20
2023-04-27T06:03:46.327Z,7.00
2023-04-27T06:06:13.562Z,6.60
2023-04-27T06:08:40.666Z,6.30
2023-04-27T06:11:07.768Z,6.40
2023-04-27T06:13:34.850Z,7.10
2023-04-27T06:16:02.130Z,7.60
2023-04-27T06:18:29.393Z,7.90
2023-04-27T06:21:01.921Z,8.00
2023-04-27T06:23:29.398Z,8.10
2023-04-27T06:25:56.651Z,8.00
2023-04-27T06:28:24.392Z,8.10
2023-04-27T06:30:52.616Z,7.60
2023-04-27T06:33:19.680Z,7.50
2023-04-27T06:35:47.551Z,7.40
2023-04-27T06:38:14.889Z,7.30
2023-04-27T06:40:43.937Z,7.70
2023-04-27T06:43:10.977Z,8.20
2023-04-27T06:45:38.238Z,8.50
2023-04-27T06:48:05.598Z,8.80
2023-04-27T06:50:32.689Z,8.90
2023-04-27T06:52:59.813Z,9.10
2023-04-27T06:55:26.936Z,9.40
2023-04-27T06:57:53.936Z,9.60
2023-04-27T07:00:21.163Z,9.80
2023-04-27T07:02:48.330Z,10.20
2023-04-27T07:05:15.512Z,10.10
2023-04-27T07:07:42.628Z,9.80
2023-04-27T07:10:10.372Z,9.40
2023-04-27T07:12:38.693Z,9.40
2023-04-27T07:15:07.418Z,9.70
2023-04-27T07:17:34.705Z,9.80
2023-04-27T07:20:04.060Z,10.00
2023-04-27T07:22:31.214Z,10.10
2023-04-27T07:24:58.475Z,10.50
2023-04-27T07:27:26.717Z,10.40
2023-04-27T07:29:53.994Z,10.40
2023-04-27T07:32:22.144Z,10.20
2023-04-27T07:34:53.326Z,10.20
2023-04-27T07:37:22.178Z,10.30
2023-04-27T07:39:50.681Z,10.10
2023-04-27T07:42:18.605Z,9.90
2023-04-27T07:44:45.752Z,10.10
2023-04-27T07:47:14.125Z,10.00
2023-04-27T07:49:41.191Z,10.20
2023-04-27T07:52:08.578Z,10.10
2023-04-27T07:54:35.893Z,10.40
2023-04-27T07:57:09.176Z,10.40
2023-04-27T07:59:36.746Z,10.30
2023-04-27T08:02:18.578Z,10.00
2023-04-27T08:04:47.143Z,10.10
2023-04-27T08:07:19.478Z,10.10
2023-04-27T08:09:46.810Z,10.10
2023-04-27T08:12:13.941Z,10.30
2023-04-27T08:14:41.072Z,10.50
2023-04-27T08:17:08.067Z,10.80
2023-04-27T08:19:35.170Z,10.70
2023-04-27T08:22:02.344Z,10.50
2023-04-27T08:24:29.500Z,10.30
2023-04-27T08:26:56.671Z,10.50
2023-04-27T08:29:28.418Z,10.70
2023-04-27T08:31:59.328Z,10.50
2023-04-27T08:34:27.015Z,10.50
2023-04-27T08:36:57.191Z,10.70
2023-04-27T08:39:24.864Z,10.70
2023-04-27T08:41:51.961Z,10.70
2023-04-27T08:44:19.493Z,10.40
2023-04-27T08:46:47.082Z,10.30
2023-04-27T08:49:16.629Z,10.20
2023-04-27T08:51:44.749Z,10.20
2023-04-27T08:54:11.826Z,10.20
2023-04-27T08:56:39.588Z,10.40
2023-04-27T08:59:14.643Z,10.50
2023-04-27T09:01:50.008Z,10.50
2023-04-27T09:04:18.366Z,10.50
2023-04-27T09:06:46.411Z,10.80
2023-04-27T09:09:23.739Z,10.90
2023-04-27T09:11:51.496Z,11.00
2023-04-27T09:14:24.319Z,11.00
2023-04-27T09:16:59.801Z,10.80
2023-04-27T09:19:28.876Z,11.00
2023-04-27T09:22:11.327Z,11.10
2023-04-27T09:24:38.634Z,11.10
2023-04-27T09:27:07.483Z,11.20
2023-04-27T09:29:39.223Z,11.30
2023-04-27T09:32:21.025Z,11.30
2023-04-27T09:34:49.908Z,11.20
2023-04-27T09:37:17.032Z,11.50
2023-04-27T09:39:44.517Z,11.60
2023-04-27T09:42:12.801Z,11.90
2023-04-27T09:44:39.958Z,12.10
2023-04-27T09:47:07.629Z,12.10
2023-04-27T09:49:36.294Z,12.20
2023-04-27T09:52:04.361Z,12.40
2023-04-27T09:54:33.601Z,12.00
2023-04-27T09:57:09.811Z,11.80
2023-04-27T09:59:45.557Z,12.00
2023-04-27T10:02:24.686Z,12.00
2023-04-27T10:05:04.516Z,12.10
2023-04-27T10:07:33.284Z,12.10
2023-04-27T10:10:04.669Z,12.20
2023-04-27T10:12:38.911Z,11.90
2023-04-27T10:15:26.892Z,12.10
2023-04-27T10:17:55.442Z,12.40
2023-04-27T10:20:36.919Z,12.40
2023-04-27T10:23:04.694Z,12.60
2023-04-27T10:25:43.193Z,12.60
2023-04-27T10:28:17.135Z,12.20
2023-04-27T10:30:49.539Z,12.50
2023-04-27T10:33:19.258Z,12.90
2023-04-27T10:36:00.426Z,13.10
2023-04-27T10:38:30.863Z,13.30
2023-04-27T10:41:02.167Z,13.30
2023-04-27T10:43:31.404Z,13.80
2023-04-27T10:46:12.825Z,13.60
2023-04-27T10:48:41.354Z,13.40
2023-04-27T10:51:08.599Z,13.60
2023-04-27T10:53:36.573Z,13.20
2023-04-27T10:56:07.149Z,13.10
2023-04-27T11:01:09.446Z,13.50
2023-04-27T11:03:36.769Z,14.00
2023-04-27T11:06:06.206Z,13.70
2023-04-27T11:08:36.569Z,13.70
2023-04-27T11:11:05.220Z,13.50
2023-04-27T11:13:33.673Z,14.00
2023-04-27T11:16:01.366Z,13.90
2023-04-27T11:18:33.228Z,13.90
2023-04-27T11:21:09.163Z,14.10
2023-04-27T11:23:39.920Z,14.30
2023-04-27T11:26:18.764Z,14.70
2023-04-27T11:29:14.483Z,15.40
2023-04-27T11:31:49.421Z,15.80
2023-04-27T11:34:19.508Z,15.60
2023-04-27T11:37:10.476Z,15.50
2023-04-27T11:39:46.802Z,15.70
2023-04-27T11:42:19.687Z,15.90
2023-04-27T11:44:54.538Z,16.10
2023-04-27T11:47:23.017Z,16.10
2023-04-27T11:49:52.346Z,16.10
2023-04-27T11:52:19.673Z,16.40
2023-04-27T11:54:51.135Z,16.30
2023-04-27T11:57:18.279Z,16.70
2023-04-27T11:59:45.346Z,16.60
2023-04-27T12:02:12.648Z,16.60
2023-04-27T12:04:39.941Z,16.50
2023-04-27T12:07:07.252Z,16.50
2023-04-27T12:09:34.586Z,16.30
2023-04-27T12:12:02.758Z,16.60
2023-04-27T12:14:29.853Z,16.80
2023-04-27T12:16:56.999Z,17.10
2023-04-27T12:19:27.306Z,17.40
2023-04-27T12:21:55.594Z,17.10
2023-04-27T12:24:22.647Z,17.00
2023-04-27T12:26:49.773Z,17.30
2023-04-27T12:29:16.847Z,17.30
2023-04-27T12:31:44.163Z,17.40
2023-04-27T12:34:11.409Z,17.50
2023-04-27T12:36:38.574Z,17.60
2023-04-27T12:39:27.384Z,17.80
2023-04-27T12:41:55.003Z,17.60
2023-04-27T12:44:22.275Z,17.70
2023-04-27T12:46:49.465Z,17.80
2023-04-27T12:49:16.833Z,18.20
2023-04-27T12:51:44.015Z,18.10
2023-04-27T12:54:13.246Z,17.90
2023-04-27T12:56:40.416Z,18.10
2023-04-27T12:59:07.520Z,18.40
2023-04-27T13:01:34.790Z,18.30
2023-04-27T13:04:04.231Z,18.70
2023-04-27T13:06:32.212Z,18.90
2023-04-27T13:09:02.942Z,19.20
2023-04-27T13:11:30.093Z,19.80
2023-04-27T13:13:57.260Z,20.50
2023-04-27T13:16:25.852Z,19.80
2023-04-27T13:18:53.878Z,19.50
2023-04-27T13:21:21.378Z,19.30
2023-04-27T13:23:49.463Z,19.80
2023-04-27T13:26:17.109Z,20.10
2023-04-27T13:28:44.212Z,20.00
2023-04-27T13:31:12.071Z,19.70
2023-04-27T13:33:42.101Z,19.90
2023-04-27T13:36:13.761Z,19.60
2023-04-27T13:38:41.194Z,19.70
2023-04-27T13:41:09.106Z,20.30
2023-04-27T13:43:36.357Z,20.10
2023-04-27T13:46:03.593Z,20.10
2023-04-27T13:48:32.036Z,20.10
2023-04-27T13:50:59.200Z,20.00
2023-04-27T13:53:26.719Z,19.60
2023-04-27T13:55:55.252Z,19.60
2023-04-27T13:58:24.466Z,20.20
2023-04-27T14:00:53.551Z,20.40
2023-04-27T14:03:21.736Z,20.40
2023-04-27T14:05:51.055Z,20.20
2023-04-27T14:08:18.709Z,20.10
2023-04-27T14:10:46.432Z,20.40
2023-04-27T14:13:13.603Z,20.30
2023-04-27T14:15:41.566Z,20.00
2023-04-27T14:18:09.849Z,19.50
2023-04-27T14:20:38.126Z,19.80
2023-04-27T14:23:06.486Z,19.70
2023-04-27T14:25:34.792Z,19.80
2023-04-27T14:28:04.355Z,20.10
2023-04-27T14:30:35.454Z,20.20
2023-04-27T14:33:03.178Z,19.60
2023-04-27T14:35:30.521Z,19.70
2023-04-27T14:38:02.389Z,19.90
2023-04-27T14:40:30.689Z,19.20
2023-04-27T14:42:58.660Z,19.20
2023-04-27T14:45:29.203Z,19.20
2023-04-27T14:48:04.193Z,18.60
2023-04-27T14:50:31.447Z,18.10
2023-04-27T14:52:59.107Z,18.40
2023-04-27T14:55:26.350Z,18.80
2023-04-27T14:57:53.599Z,18.80
2023-04-27T15:00:20.847Z,18.70
2023-04-27T15:02:48.041Z,18.50
2023-04-27T15:05:15.209Z,18.50
2023-04-27T15:07:42.256Z,18.30
2023-04-27T15:10:09.818Z,18.00
2023-04-27T15:12:36.878Z,18.00
2023-04-27T15:15:04.913Z,18.20
2023-04-27T15:17:32.053Z,18.70
2023-04-27T15:19:59.182Z,18.70
2023-04-27T15:22:28.025Z,18.70
2023-04-27T15:24:55.008Z,18.50
2023-04-27T15:27:22.362Z,18.80
2023-04-27T15:29:49.513Z,18.90
2023-04-27T15:32:16.628Z,18.80
2023-04-27T15:34:44.822Z,18.30
2023-04-27T15:37:12.279Z,17.90
2023-04-27T15:39:39.353Z,17.80
2023-04-27T15:42:06.449Z,18.00
2023-04-27T15:44:33.576Z,18.10
2023-04-27T15:47:00.835Z,17.60
2023-04-27T15:49:28.476Z,17.20
2023-04-27T15:51:55.605Z,17.30
2023-04-27T15:54:23.008Z,17.30
2023-04-27T15:56:50.109Z,17.20
2023-04-27T15:59:17.290Z,17.40
2023-04-27T16:01:44.510Z,17.40
2023-04-27T16:04:11.776Z,17.20
2023-04-27T16:06:39.430Z,16.90
2023-04-27T16:09:11.419Z,16.80
2023-04-27T16:11:39.477Z,16.50
2023-04-27T16:14:06.671Z,16.40
2023-04-27T16:16:33.763Z,16.50
2023-04-27T16:19:01.094Z,16.50
2023-04-27T16:21:28.427Z,16.20
2023-04-27T16:23:55.962Z,16.00
2023-04-27T16:26:23.527Z,15.70
2023-04-27T16:28:51.762Z,15.50
2023-04-27T16:31:18.826Z,15.20
2023-04-27T16:33:47.266Z,15.10
2023-04-27T16:36:14.404Z,15.00
2023-04-27T16:38:41.656Z,15.00
2023-04-27T16:41:08.729Z,14.90
2023-04-27T16:43:36.012Z,15.00
2023-04-27T16:46:03.112Z,15.10
2023-04-27T16:48:30.686Z,15.10
2023-04-27T16:50:57.986Z,15.10
2023-04-27T16:53:27.222Z,15.10
2023-04-27T16:55:54.368Z,15.10
2023-04-27T16:58:21.487Z,15.00
2023-04-27T17:00:48.621Z,15.00
2023-04-27T17:03:15.746Z,14.80
2023-04-27T17:05:43.120Z,14.70
2023-04-27T17:08:10.944Z,14.50
2023-04-27T17:10:38.025Z,14.30
2023-04-27T17:13:05.906Z,14.20
2023-04-27T17:15:32.992Z,14.00
2023-04-27T17:18:04.924Z,13.90
2023-04-27T17:20:32.491Z,13.80
2023-04-27T17:22:59.681Z,13.70
2023-04-27T17:25:26.859Z,13.70
2023-04-27T17:27:54.085Z,13.60
2023-04-27T17:30:21.098Z,13.50
2023-04-27T17:32:48.250Z,13.40
2023-04-27T17:35:15.262Z,13.30
2023-04-27T17:37:42.326Z,13.20
2023-04-27T17:40:09.991Z,13.20
2023-04-27T17:42:37.021Z,13.10
2023-04-27T17:45:04.231Z,13.00
2023-04-27T17:47:32.358Z,13.00
2023-04-27T17:49:59.417Z,12.80
2023-04-27T17:52:26.501Z,12.80
2023-04-27T17:54:53.809Z,12.70
2023-04-27T17:57:20.891Z,12.70
2023-04-27T17:59:47.958Z,12.60
2023-04-27T18:02:15.309Z,12.60
2023-04-27T18:04:42.527Z,12.60
2023-04-27T18:07:09.677Z,12.50
2023-04-27T18:09:36.764Z,12.50
2023-04-27T18:12:04.690Z,12.50
2023-04-27T18:14:31.794Z,12.40
2023-04-27T18:16:58.916Z,12.40
2023-04-27T18:19:26.019Z,12.30
2023-04-27T18:21:53.268Z,12.20
2023-04-27T18:24:20.479Z,12.20
2023-04-27T18:26:48.863Z,12.10
2023-04-27T18:29:16.054Z,12.00
2023-04-27T18:31:43.622Z,12.00
2023-04-27T18:34:10.813Z,11.90
2023-04-27T18:36:37.837Z,11.80
2023-04-27T18:39:05.171Z,11.80
2023-04-27T18:41:32.512Z,11.80
2023-04-27T18:44:06.631Z,11.70
2023-04-27T18:46:34.751Z,11.70
2023-04-27T18:49:02.416Z,11.80
2023-04-27T18:51:29.564Z,11.70
2023-04-27T18:53:56.582Z,11.80
2023-04-27T18:56:23.939Z,11.70
2023-04-27T18:58:51.319Z,11.70
2023-04-27T19:01:23.525Z,11.70
2023-04-27T19:03:51.359Z,11.60
2023-04-27T19:06:20.860Z,11.60
2023-04-27T19:08:48.404Z,11.50
2023-04-27T19:11:15.796Z,11.40
2023-04-27T19:13:44.267Z,11.30
2023-04-27T19:16:12.168Z,11.20
2023-04-27T19:18:40.781Z,11.10
2023-04-27T19:21:09.970Z,11.00
2023-04-27T19:23:37.303Z,11.00
2023-04-27T19:26:12.342Z,11.00
2023-04-27T19:28:39.970Z,10.90
2023-04-27T19:31:07.238Z,10.90
2023-04-27T19:33:34.410Z,10.80
2023-04-27T19:36:01.685Z,10.80
2023-04-27T19:38:28.733Z,10.80
2023-04-27T19:40:55.976Z,10.80
2023-04-27T19:43:23.022Z,10.70
2023-04-27T19:45:51.252Z,10.70
2023-04-27T19:48:18.487Z,10.70
2023-04-27T19:50:45.541Z,10.70
2023-04-27T19:53:12.755Z,10.60
2023-04-27T19:55:40.690Z,10.60
2023-04-27T19:58:07.845Z,10.60
2023-04-27T20:00:35.386Z,10.60
2023-04-27T20:03:02.654Z,10.50
2023-04-27T20:05:30.013Z,10.50
2023-04-27T20:07:58.444Z,10.50
2023-04-27T20:10:25.565Z,10.50
2023-04-27T20:12:56.750Z,10.50
2023-04-27T20:15:24.865Z,10.40
2023-04-27T20:17:52.990Z,10.40
2023-04-27T20:20:20.988Z,10.40
2023-04-27T20:22:48.061Z,10.30
2023-04-27T20:25:15.209Z,10.30
2023-04-27T20:27:42.396Z,10.30
2023-04-27T20:30:09.956Z,10.20
2023-04-27T20:32:39.672Z,10.20
2023-04-27T20:35:11.549Z,10.20
2023-04-27T20:37:43.551Z,10.10
2023-04-27T20:40:14.434Z,10.10
2023-04-27T20:42:42.632Z,10.20
2023-04-27T20:45:11.677Z,10.20
2023-04-27T20:47:38.872Z,10.10
2023-04-27T20:50:06.948Z,10.20
2023-04-27T20:52:34.663Z,10.10
2023-04-27T20:55:02.966Z,10.10
2023-04-27T20:57:32.475Z,10.20
2023-04-27T20:59:59.574Z,10.20
2023-04-27T21:02:27.003Z,10.20
2023-04-27T21:04:54.166Z,10.20
2023-04-27T21:07:21.184Z,10.10
2023-04-27T21:09:48.255Z,10.10
2023-04-27T21:12:17.352Z,10.10
2023-04-27T21:14:44.807Z,10.00
2023-04-27T21:17:15.194Z,10.00
2023-04-27T21:19:42.560Z,10.10
2023-04-27T21:22:09.598Z,10.00
2023-04-27T21:24:36.939Z,10.00
2023-04-27T21:27:04.156Z,10.00
2023-04-27T21:29:31.405Z,10.00
2023-04-27T21:31:58.406Z,10.00
2023-04-27T21:34:25.518Z,10.00
2023-04-27T21:36:52.675Z,9.90
2023-04-27T21:39:19.668Z,9.90
2023-04-27T21:41:46.882Z,9.90
2023-04-27T21:44:14.084Z,9.90
2023-04-27T21:46:41.707Z,10.00
2023-04-27T21:49:08.796Z,10.00
2023-04-27T21:51:36.796Z,10.00
2023-04-27T21:54:03.994Z,10.10
2023-04-27T21:56:31.108Z,10.10
2023-04-27T21:58:58.137Z,10.10
2023-04-27T22:01:27.286Z,10.10
2023-04-27T22:03:54.610Z,10.30
2023-04-27T22:06:22.129Z,10.40
2023-04-27T22:08:49.330Z,10.40
2023-04-27T22:11:16.876Z,10.40
2023-04-27T22:13:44.052Z,10.50
2023-04-27T22:16:13.131Z,10.50
2023-04-27T22:18:40.980Z,10.50
2023-04-27T22:21:08.471Z,10.50
2023-04-27T22:23:35.683Z,10.50
2023-04-27T22:26:02.728Z,10.60
2023-04-27T22:28:29.844Z,10.60
2023-04-27T22:30:57.258Z,10.50
2023-04-27T22:33:24.734Z,10.50
2023-04-27T22:35:51.974Z,10.50
2023-04-27T22:38:19.176Z,10.50
2023-04-27T22:40:46.450Z,10.50
2023-04-27T22:43:14.104Z,10.50
2023-04-27T22:45:41.184Z,10.50
2023-04-27T22:48:08.426Z,10.60
2023-04-27T22:50:35.735Z,10.60
2023-04-27T22:53:03.851Z,10.70
2023-04-27T22:55:30.967Z,10.60
2023-04-27T22:57:58.004Z,10.70
2023-04-27T23:00:25.095Z,10.70
2023-04-27T23:02:52.336Z,10.80
2023-04-27T23:05:19.623Z,10.80
2023-04-27T23:07:46.686Z,10.80
2023-04-27T23:10:15.318Z,10.80
2023-04-27T23:12:42.436Z,10.70
2023-04-27T23:15:09.802Z,10.70
2023-04-27T23:17:37.188Z,10.80
2023-04-27T23:20:26.575Z,10.80
2023-04-27T23:22:55.045Z,10.80
2023-04-27T23:25:22.339Z,10.70
2023-04-27T23:27:51.703Z,10.70
2023-04-27T23:30:19.582Z,10.60
2023-04-27T23:32:46.690Z,10.60
2023-04-27T23:35:13.752Z,10.60
2023-04-27T23:37:40.830Z,10.60
2023-04-27T23:40:09.556Z,10.60
2023-04-27T23:42:36.979Z,10.60
2023-04-27T23:45:05.141Z,10.60
2023-04-27T23:47:34.177Z,10.50
2023-04-27T23:50:02.505Z,10.50
2023-04-27T23:52:29.571Z,10.60
2023-04-27T23:54:58.173Z,10.60
2023-04-27T23:57:25.282Z,10.70
2023-04-27T23:59:52.396Z,10.70
